Time;durP1;ratioP1;P1;durP2;ratioP2;P2;SDS_P1;SDS_P2;PMS_P1;PMS_P2;Temp;Humidity;BMP_temperature;BMP_pressure;BME280_temperature;BME280_humidity;BME280_pressure;Samples;Min_cycle;Max_cycle;Signal;HPM_P1;HPM_P2
2022/01/25 00:25:44;;;;;;;20.43;12.47;;;;;;;-2.38;66.69;101676.84;1678891;84;21711;-62
2022/01/25 00:27:49;;;;;;;23.70;13.75;;;;;;;-2.31;66.94;101690.87;1669655;85;21257;-62
2022/01/25 00:34:10;;;;;;;19.87;13.05;;;;;;;-2.16;66.93;101676.38;1679006;84;21257;-61
2022/01/25 00:37:20;;;;;;;18.70;11.63;;;;;;;-2.14;66.83;101671.80;1678939;83;21256;-61
2022/01/25 00:40:25;;;;;;;19.75;11.55;;;;;;;-2.22;66.56;101663.20;1665259;85;21406;-62
2022/01/25 00:43:33;;;;;;;18.07;11.60;;;;;;;-2.22;66.72;101680.63;1679206;84;21780;-62
2022/01/25 00:46:39;;;;;;;18.70;11.57;;;;;;;-2.15;66.78;101682.14;1679076;85;21212;-62
2022/01/25 00:49:51;;;;;;;16.70;10.58;;;;;;;-2.07;66.80;101673.30;1679005;84;21279;-62
2022/01/25 00:55:59;;;;;;;17.73;10.30;;;;;;;-2.03;65.98;101671.38;1679086;85;21761;-62
2022/01/25 00:59:06;;;;;;;17.05;10.38;;;;;;;-2.07;65.88;101669.28;1678883;84;21540;-61
2022/01/25 01:02:18;;;;;;;15.55;10.10;;;;;;;-2.07;65.94;101678.67;1679137;85;21752;-61
2022/01/25 01:05:25;;;;;;;19.02;11.48;;;;;;;-2.01;66.02;101673.04;1679036;84;21299;-62
2022/01/25 01:08:34;;;;;;;17.60;10.58;;;;;;;-2.06;65.70;101668.33;1678768;84;21229;-62
2022/01/25 01:11:53;;;;;;;18.57;11.95;;;;;;;-2.02;65.96;101659.23;1679069;85;21236;-63
2022/01/25 01:45:06;;;;;;;;;;;;;;;-2.24;65.05;101651.70;1681496;84;21264;-62
2022/01/25 01:48:07;;;;;;;18.70;10.98;;;;;;;-2.18;65.08;101650.09;1679196;85;20257;-62
2022/01/25 01:51:19;;;;;;;17.92;11.53;;;;;;;-2.17;64.97;101650.48;1678642;85;21251;-62
2022/01/25 01:54:22;;;;;;;18.60;11.48;;;;;;;-2.17;64.63;101652.31;1679080;84;21800;-62
2022/01/25 01:57:28;;;;;;;17.23;10.18;;;;;;;-2.23;64.38;101642.70;1679040;85;21288;-62
2022/01/25 02:00:41;;;;;;;21.42;10.72;;;;;;;-2.29;64.04;101641.62;1664618;85;21722;-62
2022/01/25 02:03:47;;;;;;;18.48;10.88;;;;;;;-2.41;63.75;101643.45;1678547;84;21232;-62
2022/01/25 02:06:53;;;;;;;17.90;9.93;;;;;;;-2.46;64.10;101641.46;1664088;85;21394;-62
2022/01/25 02:09:59;;;;;;;14.55;9.43;;;;;;;-2.39;64.32;101632.67;1678494;85;21789;-62
2022/01/25 02:13:05;;;;;;;19.05;10.30;;;;;;;-2.38;64.28;101632.59;1664559;85;21458;-62
2022/01/25 02:16:31;;;;;;;17.02;10.20;;;;;;;-2.31;64.29;101634.10;1678818;85;21231;-62
2022/01/25 02:22:52;;;;;;;18.87;10.90;;;;;;;-2.28;63.94;101629.06;1678764;85;21732;-62
2022/01/25 02:26:00;;;;;;;25.27;12.15;;;;;;;-2.25;63.74;101639.70;1679093;85;21272;-62
2022/01/25 02:29:06;;;;;;;20.62;11.35;;;;;;;-2.33;63.71;101629.27;1678954;84;21248;-62
2022/01/25 02:32:13;;;;;;;18.15;11.08;;;;;;;-2.36;63.69;101619.16;1678989;85;21257;-61
2022/01/25 02:35:22;;;;;;;16.10;10.00;;;;;;;-2.34;63.70;101623.97;1678889;84;21275;-61
2022/01/25 02:38:34;;;;;;;15.45;9.70;;;;;;;-2.32;63.81;101625.67;1679831;82;21320;-61
2022/01/25 02:41:39;;;;;;;19.12;10.60;;;;;;;-2.32;63.55;101638.19;1683340;85;21255;-63
2022/01/25 02:44:45;;;;;;;25.82;13.80;;;;;;;-2.32;63.66;101634.17;1657140;85;21374;-62
2022/01/25 02:51:13;;;;;;;;;;;;;;;-2.43;63.51;101638.65;1676383;85;21422;-62
2022/01/25 02:54:18;;;;;;;16.70;9.43;;;;;;;-2.44;63.53;101634.70;1674815;84;20255;-64
2022/01/25 02:57:25;;;;;;;19.05;10.20;;;;;;;-2.48;63.57;101634.39;1674144;85;21333;-62
2022/01/25 03:00:31;;;;;;;16.25;10.38;;;;;;;-2.47;63.87;101624.06;1674131;84;21264;-60
2022/01/25 03:03:41;;;;;;;18.37;11.03;;;;;;;-2.49;63.92;101618.77;1674148;84;21237;-62
2022/01/25 03:06:51;;;;;;;18.23;11.20;;;;;;;-2.56;63.98;101622.66;1674188;85;21216;-62
2022/01/25 03:10:00;;;;;;;17.77;11.12;;;;;;;-2.49;64.29;101627.30;1674466;84;21411;-62
2022/01/25 03:13:14;;;;;;;19.92;12.55;;;;;;;-2.42;64.38;101621.62;1657681;85;21271;-62
2022/01/25 03:16:23;;;;;;;20.12;11.95;;;;;;;-2.38;64.06;101619.69;1675223;85;21205;-62
2022/01/25 03:19:45;;;;;;;17.07;10.20;;;;;;;-2.52;63.94;101619.39;1659553;85;21245;-61
2022/01/25 03:26:00;;;;;;;21.75;12.37;;;;;;;-2.58;64.02;101628.55;1675920;84;21347;-62
2022/01/25 03:29:09;;;;;;;19.92;11.97;;;;;;;-2.63;64.28;101616.28;1674722;84;21347;-63
2022/01/25 03:32:18;;;;;;;17.82;11.35;;;;;;;-2.66;64.57;101619.94;1675261;85;21268;-61
2022/01/25 03:35:28;;;;;;;18.60;10.93;;;;;;;-2.65;64.72;101614.13;1674626;84;21351;-61
2022/01/25 03:38:34;;;;;;;17.60;10.93;;;;;;;-2.61;64.94;101613.93;1674477;84;21478;-62
2022/01/25 03:41:40;;;;;;;19.15;11.68;;;;;;;-2.56;64.80;101620.44;1689098;84;21375;-63
2022/01/25 03:44:46;;;;;;;20.32;11.55;;;;;;;-2.56;64.74;101626.68;1689440;83;21211;-63
2022/01/25 03:51:04;;;;;;;20.40;13.65;;;;;;;-2.58;64.72;101632.56;1689457;85;21235;-61
2022/01/25 03:54:09;;;;;;;18.45;11.38;;;;;;;-2.67;64.41;101622.69;1690204;83;21327;-63
2022/01/25 03:57:14;;;;;;;17.25;11.03;;;;;;;-2.79;64.72;101621.36;1689382;85;21227;-63
2022/01/25 04:00:22;;;;;;;17.50;10.13;;;;;;;-2.75;64.91;101620.78;1669100;85;21389;-62
2022/01/25 04:03:35;;;;;;;15.50;9.65;;;;;;;-2.68;65.19;101616.94;1690099;83;21498;-62
2022/01/25 04:06:42;;;;;;;14.75;9.55;;;;;;;-2.56;65.24;101623.12;1689395;85;21228;-63
2022/01/25 04:09:47;;;;;;;18.05;11.22;;;;;;;-2.47;65.06;101619.59;1689660;83;21378;-63
2022/01/25 04:12:54;;;;;;;21.17;13.38;;;;;;;-2.41;64.89;101615.30;1689430;84;21290;-63
2022/01/25 04:16:19;;;;;;;17.55;10.68;;;;;;;-2.47;64.34;101616.91;1689302;85;21255;-62
2022/01/25 04:19:42;;;;;;;16.77;10.68;;;;;;;-2.52;64.51;101614.03;1689432;83;21796;-62
2022/01/25 04:26:04;;;;;;;19.12;11.28;;;;;;;-2.41;64.67;101618.48;1689369;85;21606;-62
2022/01/25 04:29:10;;;;;;;18.02;9.83;;;;;;;-2.35;64.38;101609.71;1689719;83;21236;-62
2022/01/25 04:32:19;;;;;;;17.65;10.45;;;;;;;-2.31;64.36;101618.02;1689443;84;21255;-63
2022/01/25 04:49:12;;;;;;;20.55;11.97;;;;;;;-2.28;63.79;101619.22;1691372;84;21243;-62
2022/01/25 04:52:18;;;;;;;20.72;13.05;;;;;;;-2.35;63.71;101625.80;1690499;84;21288;-62
2022/01/25 04:55:34;;;;;;;23.30;13.28;;;;;;;-2.39;63.69;101625.96;1689921;84;21485;-62
2022/01/25 04:58:38;;;;;;;30.12;16.73;;;;;;;-2.46;63.78;101628.05;1691743;83;21429;-63
2022/01/25 05:01:37;;;;;;;22.27;13.60;;;;;;;-2.44;63.97;101627.99;1691959;85;21223;-63
2022/01/25 05:04:56;;;;;;;19.60;12.30;;;;;;;-2.52;63.85;101624.27;1691800;83;21318;-62
2022/01/25 05:08:03;;;;;;;19.20;12.15;;;;;;;-2.53;64.11;101617.17;1691512;84;21227;-64
2022/01/25 05:11:11;;;;;;;15.23;10.05;;;;;;;-2.63;63.94;101617.63;1691727;84;21275;-63
2022/01/25 05:14:24;;;;;;;14.60;9.80;;;;;;;-2.69;64.16;101622.75;1681566;85;21595;-62
2022/01/25 05:17:39;;;;;;;16.55;11.00;;;;;;;-2.79;64.28;101618.69;1690482;84;21354;-62
2022/01/25 05:24:33;;;;;;;21.25;13.95;;;;;;;-2.78;64.69;101631.17;1690655;84;21441;-62
2022/01/25 05:27:39;;;;;;;20.02;12.03;;;;;;;-2.82;64.76;101625.51;1690774;84;21359;-63
2022/01/25 05:30:44;;;;;;;25.15;14.58;;;;;;;-2.82;64.95;101632.20;1690300;84;21398;-62
2022/01/25 05:33:50;;;;;;;26.87;17.57;;;;;;;-2.84;64.81;101629.20;1690532;84;21562;-62
2022/01/25 05:36:55;;;;;;;20.82;13.53;;;;;;;-2.89;64.80;101632.06;1690312;84;21317;-63
2022/01/25 05:40:02;;;;;;;55.78;25.52;;;;;;;-2.89;64.76;101632.06;1690753;84;21809;-62
2022/01/25 05:46:32;;;;;;;18.20;11.15;;;;;;;-2.89;64.59;101622.69;1686582;85;21409;-62
2022/01/25 05:49:29;;;;;;;15.72;10.18;;;;;;;-2.84;64.51;101615.34;1689834;84;21220;-62
2022/01/25 05:52:35;;;;;;;15.65;10.32;;;;;;;-2.89;64.28;101620.01;1689411;84;21236;-62
2022/01/25 05:55:40;;;;;;;23.32;13.03;;;;;;;-2.91;64.61;101615.17;1689986;84;21236;-64
2022/01/25 05:58:45;;;;;;;24.15;13.10;;;;;;;-2.82;64.64;101611.27;1688323;84;21792;-61
2022/01/25 06:01:52;;;;;;;48.83;26.02;;;;;;;-2.82;64.69;101616.63;1688182;84;21200;-61
2022/01/25 06:04:59;;;;;;;37.05;20.45;;;;;;;-2.73;64.83;101611.77;1664768;85;21369;-62
2022/01/25 06:08:04;;;;;;;40.78;18.27;;;;;;;-2.66;64.70;101611.05;1688653;84;21267;-63
2022/01/25 06:11:09;;;;;;;40.52;21.17;;;;;;;-2.60;64.49;101611.64;1688876;84;21323;-60
2022/01/25 06:14:15;;;;;;;51.30;24.45;;;;;;;-2.57;64.40;101614.23;1687811;84;21255;-62
2022/01/25 06:17:23;;;;;;;40.88;20.27;;;;;;;-2.51;64.39;101615.31;1667744;84;21275;-62
2022/01/25 06:20:33;;;;;;;31.97;18.80;;;;;;;-2.50;64.31;101610.34;1689125;83;21240;-62
2022/01/25 06:23:39;;;;;;;44.83;24.00;;;;;;;-2.45;64.33;101615.05;1688526;84;21888;-63
2022/01/25 06:26:45;;;;;;;45.33;24.63;;;;;;;-2.39;64.35;101606.73;1687449;84;21238;-62
2022/01/25 06:29:51;;;;;;;46.75;25.25;;;;;;;-2.29;64.46;101601.86;1688956;83;21223;-63
2022/01/25 06:33:07;;;;;;;55.25;30.77;;;;;;;-2.20;64.38;101609.50;1689444;85;21314;-64
2022/01/25 06:36:13;;;;;;;41.73;23.60;;;;;;;-2.12;64.36;101604.23;1688816;84;21745;-63
2022/01/25 06:39:19;;;;;;;33.80;18.42;;;;;;;-2.00;64.35;101599.66;1690031;83;21243;-63
2022/01/25 06:42:31;;;;;;;21.37;12.03;;;;;;;-1.90;64.37;101600.13;1692007;84;21733;-62
2022/01/25 06:45:40;;;;;;;24.52;13.65;;;;;;;-1.85;63.84;101604.82;1644165;86;21264;-62
2022/01/25 06:48:48;;;;;;;24.32;13.05;;;;;;;-1.91;63.63;101604.64;1617455;87;21883;-62
2022/01/25 06:51:55;;;;;;;21.10;12.70;;;;;;;-1.94;63.97;101604.78;1618047;88;21232;-61
2022/01/25 06:55:02;;;;;;;18.85;11.05;;;;;;;-1.88;64.06;101600.48;1618348;87;21860;-62
2022/01/25 06:58:08;;;;;;;30.45;16.20;;;;;;;-1.83;63.82;101614.56;1639300;87;21243;-63
2022/01/25 07:01:17;;;;;;;30.35;16.00;;;;;;;-1.94;63.46;101602.09;1643746;86;21240;-62
2022/01/25 07:04:23;;;;;;;21.62;12.07;;;;;;;-2.04;63.73;101606.11;1644436;86;21788;-62
2022/01/25 07:07:31;;;;;;;19.40;10.88;;;;;;;-2.00;64.00;101606.36;1644693;87;21509;-65
2022/01/25 07:10:36;;;;;;;20.88;12.60;;;;;;;-1.92;64.00;101604.22;1642891;86;21216;-64
2022/01/25 07:13:43;;;;;;;21.45;12.13;;;;;;;-1.88;63.62;101605.84;1645836;85;21367;-64
2022/01/25 07:16:51;;;;;;;23.35;13.30;;;;;;;-2.05;63.17;101603.49;1643405;86;21221;-63
2022/01/25 07:19:58;;;;;;;29.07;15.32;;;;;;;-2.13;63.52;101602.49;1642551;87;21295;-64
2022/01/25 07:23:04;;;;;;;44.83;19.82;;;;;;;-2.03;63.77;101608.33;1643001;86;21212;-64
2022/01/25 07:26:10;;;;;;;17.85;10.25;;;;;;;-1.99;63.49;101618.86;1644270;86;21260;-64
2022/01/25 07:29:18;;;;;;;30.37;16.70;;;;;;;-1.92;63.71;101612.27;1642590;85;21805;-64
2022/01/25 07:32:25;;;;;;;18.50;11.10;;;;;;;-1.93;62.98;101608.31;1642269;87;21901;-64
2022/01/25 07:35:31;;;;;;;25.97;14.18;;;;;;;-1.92;63.09;101613.61;1643037;87;21263;-64
2022/01/25 07:38:38;;;;;;;38.23;22.60;;;;;;;-1.85;63.04;101608.84;1638665;86;21440;-64
2022/01/25 07:41:48;;;;;;;31.07;18.02;;;;;;;-1.80;62.88;101605.50;1643343;87;21871;-64
2022/01/25 07:44:58;;;;;;;26.33;16.30;;;;;;;-1.71;62.89;101607.30;1595922;85;21367;-63
2022/01/25 07:48:09;;;;;;;25.12;17.30;;;;;;;-1.76;62.46;101602.60;1605355;89;21277;-65
2022/01/25 07:51:16;;;;;;;19.40;12.70;;;;;;;-1.73;62.81;101599.77;1611138;88;21711;-63
2022/01/25 07:54:22;;;;;;;24.90;16.57;;;;;;;-1.59;62.63;101598.68;1645699;86;21391;-64
2022/01/25 07:57:27;;;;;;;21.05;13.00;;;;;;;-1.55;62.29;101598.95;1651876;86;21745;-64
2022/01/25 08:00:37;;;;;;;20.70;12.63;;;;;;;-1.45;62.36;101598.52;1668782;85;21730;-64
2022/01/25 08:03:44;;;;;;;18.87;11.08;;;;;;;-1.37;62.24;101601.27;1651868;85;21237;-65
2022/01/25 08:07:02;;;;;;;17.57;11.12;;;;;;;-1.28;61.95;101602.17;1651796;85;21375;-64
2022/01/25 08:10:18;;;;;;;15.25;10.98;;;;;;;-1.36;61.52;101599.47;1653184;85;21251;-64
2022/01/25 08:13:24;;;;;;;21.93;14.60;;;;;;;-1.38;61.63;101601.34;1645564;86;21227;-64
2022/01/25 08:16:42;;;;;;;15.83;10.40;;;;;;;-1.35;61.29;101596.71;1651886;86;21268;-65
2022/01/25 08:19:51;;;;;;;18.75;10.50;;;;;;;-1.38;61.30;101597.31;1645098;86;21263;-64
2022/01/25 08:22:59;;;;;;;18.48;10.75;;;;;;;-1.29;61.54;101608.50;1651352;86;21223;-63
2022/01/25 08:26:11;;;;;;;16.50;11.50;;;;;;;-1.31;61.19;101606.81;1644956;86;21801;-64
2022/01/25 08:29:18;;;;;;;15.58;10.23;;;;;;;-1.23;61.66;101608.21;1663293;84;21233;-64
2022/01/25 08:32:31;;;;;;;14.20;9.28;;;;;;;-1.04;61.27;101607.75;1668863;85;21223;-63
2022/01/25 08:35:43;;;;;;;18.17;10.88;;;;;;;-0.90;60.69;101602.58;1671846;84;21390;-64
2022/01/25 08:38:50;;;;;;;17.25;10.82;;;;;;;-0.73;60.18;101609.34;1678071;85;21231;-64
2022/01/25 08:42:01;;;;;;;13.62;8.65;;;;;;;-0.70;59.16;101609.69;1670406;85;21834;-64
2022/01/25 08:45:07;;;;;;;17.50;10.85;;;;;;;-0.69;59.10;101602.89;1673449;82;21379;-64
2022/01/25 08:48:21;;;;;;;13.05;8.38;;;;;;;-0.60;58.80;101602.89;1670740;84;22136;-65
2022/01/25 08:51:27;;;;;;;11.30;7.55;;;;;;;-0.43;59.03;101594.38;1678366;85;21244;-63
2022/01/25 08:54:34;;;;;;;11.73;8.55;;;;;;;-0.25;58.70;101589.43;1676898;85;21252;-64
2022/01/25 08:57:41;;;;;;;13.48;9.25;;;;;;;-0.12;58.17;101581.59;1676692;85;21947;-64
2022/01/25 09:00:51;;;;;;;13.10;9.08;;;;;;;0.00;57.35;101582.33;1676828;85;21347;-63
2022/01/25 09:04:01;;;;;;;12.03;8.25;;;;;;;0.11;56.78;101571.87;1676898;85;21248;-64
2022/01/25 09:07:05;;;;;;;12.23;8.28;;;;;;;0.15;56.35;101577.47;1676366;85;21734;-63
2022/01/25 09:10:12;;;;;;;14.63;8.70;;;;;;;0.26;56.11;101568.34;1676501;85;21299;-64
2022/01/25 09:13:18;;;;;;;12.50;8.90;;;;;;;0.12;54.99;101563.30;1676409;85;21729;-65
2022/01/25 09:16:25;;;;;;;15.15;9.88;;;;;;;0.11;55.35;101565.14;1676245;85;21782;-63
2022/01/25 09:19:32;;;;;;;13.40;9.00;;;;;;;0.13;54.53;101570.44;1676623;85;21832;-64
2022/01/25 09:22:37;;;;;;;16.87;11.57;;;;;;;-0.19;54.53;101568.08;1658380;85;21560;-65
2022/01/25 09:25:44;;;;;;;16.17;9.75;;;;;;;-0.27;54.80;101570.30;1673178;84;21474;-66
2022/01/25 09:28:51;;;;;;;17.40;10.90;;;;;;;-0.18;55.25;101563.09;1677798;84;21382;-64
2022/01/25 09:31:57;;;;;;;14.53;9.50;;;;;;;0.05;55.61;101557.36;1680492;84;21341;-64
2022/01/25 09:35:03;;;;;;;22.73;16.73;;;;;;;0.25;55.51;101547.77;1677088;84;21244;-63
2022/01/25 09:38:08;;;;;;;20.95;14.35;;;;;;;0.45;55.18;101540.81;1677130;85;21232;-63
2022/01/25 09:41:14;;;;;;;15.08;9.90;;;;;;;0.44;55.08;101539.09;1676291;85;21282;-64
2022/01/25 09:44:20;;;;;;;13.15;8.83;;;;;;;0.56;54.54;101532.14;1678149;84;21815;-64
2022/01/25 09:47:25;;;;;;;14.13;9.55;;;;;;;0.54;54.29;101525.48;1679342;81;21736;-64
2022/01/25 09:50:33;;;;;;;13.50;8.68;;;;;;;0.58;54.22;101524.38;1673003;84;21307;-64
2022/01/25 09:53:41;;;;;;;12.25;8.08;;;;;;;0.58;54.25;101523.03;1672922;84;21745;-64
2022/01/25 09:56:49;;;;;;;14.47;9.93;;;;;;;0.64;53.88;101528.54;1671729;85;21327;-64
2022/01/25 09:59:55;;;;;;;13.55;9.53;;;;;;;0.66;53.65;101524.83;1671066;86;21500;-65
2022/01/25 10:03:11;;;;;;;14.38;9.20;;;;;;;0.52;53.35;101511.26;1641557;87;21296;-64
2022/01/25 10:06:22;;;;;;;12.88;8.28;;;;;;;0.20;53.21;101505.41;1643250;85;21466;-64
2022/01/25 10:09:29;;;;;;;14.75;9.93;;;;;;;-0.23;53.21;101507.30;1646811;85;21251;-62
2022/01/25 10:12:35;;;;;;;16.02;11.18;;;;;;;-0.36;53.87;101497.66;1606883;88;21216;-63
2022/01/25 10:15:47;;;;;;;18.98;11.88;;;;;;;-0.32;54.25;101492.49;1616338;87;21636;-63
2022/01/25 10:19:03;;;;;;;16.67;11.12;;;;;;;-0.20;54.41;101496.38;1604426;88;21247;-64
2022/01/25 10:22:11;;;;;;;17.20;9.90;;;;;;;-0.13;54.14;101489.23;1650153;86;21741;-63
2022/01/25 10:25:16;;;;;;;19.52;11.88;;;;;;;-0.13;54.08;101480.31;1604382;87;21272;-64
2022/01/25 10:28:25;;;;;;;25.30;15.08;;;;;;;-0.15;53.98;101483.55;1620979;87;21382;-64
2022/01/25 10:31:45;;;;;;;22.05;11.60;;;;;;;-0.20;54.03;101494.56;1610017;88;21263;-64
2022/01/25 10:34:54;;;;;;;15.45;9.90;;;;;;;-0.37;54.26;101493.70;1640407;86;21256;-63
2022/01/25 10:37:59;;;;;;;14.87;10.20;;;;;;;-0.29;54.44;101479.38;1650964;87;21382;-64
2022/01/25 10:41:15;;;;;;;17.37;10.72;;;;;;;-0.29;54.71;101474.88;1651215;87;21261;-63
2022/01/25 10:44:20;;;;;;;17.17;10.95;;;;;;;-0.31;54.41;101473.20;1651228;85;21311;-63
2022/01/25 10:47:27;;;;;;;14.38;9.65;;;;;;;-0.34;54.56;101460.80;1651380;84;21224;-63
2022/01/25 10:50:42;;;;;;;15.40;10.23;;;;;;;-0.25;54.51;101462.98;1646644;86;21307;-64
2022/01/25 10:53:45;;;;;;;16.73;10.23;;;;;;;-0.26;54.53;101455.00;1647479;86;21284;-64
2022/01/25 10:57:04;;;;;;;15.75;10.53;;;;;;;-0.16;54.68;101454.41;1655933;85;21186;-63
2022/01/25 11:00:14;;;;;;;15.05;10.00;;;;;;;-0.03;54.80;101459.54;1674540;84;21741;-63
2022/01/25 11:03:21;;;;;;;13.43;9.08;;;;;;;0.07;54.66;101445.58;1674545;84;21350;-63
2022/01/25 11:06:31;;;;;;;18.87;11.18;;;;;;;0.01;54.74;101441.41;1659177;85;21379;-64
2022/01/25 11:09:43;;;;;;;36.40;19.75;;;;;;;-0.12;54.04;101443.91;1673494;85;21260;-64
2022/01/25 11:13:23;;;;;;;22.70;11.93;;;;;;;-0.40;54.05;101434.69;1673250;85;21229;-64
2022/01/25 11:15:59;;;;;;;14.07;9.55;;;;;;;-0.47;54.66;101430.11;1673299;85;21407;-64
2022/01/25 11:19:07;;;;;;;12.65;8.85;;;;;;;-0.42;54.79;101432.55;1672948;86;21236;-64
2022/01/25 11:22:20;;;;;;;13.60;9.05;;;;;;;-0.40;54.82;101418.55;1673758;85;21293;-64
2022/01/25 11:25:29;;;;;;;15.43;9.48;;;;;;;-0.39;54.83;101416.25;1673591;85;21371;-64
2022/01/25 11:28:40;;;;;;;17.35;10.58;;;;;;;-0.39;54.93;101419.81;1675420;84;21209;-63
2022/01/25 11:31:48;;;;;;;14.25;10.18;;;;;;;-0.44;54.91;101421.00;1673533;85;21220;-64
2022/01/25 11:34:56;;;;;;;17.05;11.30;;;;;;;-0.39;55.11;101417.59;1678217;84;21240;-63
2022/01/25 11:38:03;;;;;;;18.70;12.07;;;;;;;-0.35;54.95;101413.80;1673187;85;21865;-64
2022/01/25 11:41:08;;;;;;;19.23;12.33;;;;;;;-0.34;54.93;101412.84;1675101;85;21348;-63
2022/01/25 11:44:29;;;;;;;20.08;11.05;;;;;;;-0.33;55.06;101408.72;1658821;85;21224;-64
2022/01/25 11:47:42;;;;;;;19.17;11.68;;;;;;;-0.35;55.17;101409.77;1674066;85;21926;-63
2022/01/25 11:50:50;;;;;;;14.80;9.30;;;;;;;-0.36;55.15;101402.63;1674131;84;21932;-64
2022/01/25 11:53:59;;;;;;;15.38;10.45;;;;;;;-0.32;55.17;101402.87;1673899;84;21382;-63
2022/01/25 11:57:26;;;;;;;16.02;10.20;;;;;;;-0.37;54.86;101400.44;1674407;85;21280;-64
2022/01/25 12:01:00;;;;;;;16.35;10.35;;;;;;;-0.36;54.81;101404.86;1645235;85;21441;-63
2022/01/25 12:04:07;;;;;;;15.68;10.35;;;;;;;-0.29;54.79;101399.55;1674183;84;21840;-64
2022/01/25 12:07:22;;;;;;;14.38;9.80;;;;;;;-0.25;54.68;101395.73;1674317;85;21375;-65
2022/01/25 12:10:54;;;;;;;15.60;10.20;;;;;;;-0.26;54.48;101391.78;1658230;85;21426;-63
2022/01/25 12:13:58;;;;;;;15.40;10.75;;;;;;;-0.29;54.31;101390.61;1673269;85;21249;-64
2022/01/25 12:17:23;;;;;;;18.45;11.20;;;;;;;-0.34;54.45;101385.94;1657299;85;21225;-64
2022/01/25 12:20:31;;;;;;;17.60;12.20;;;;;;;-0.32;54.62;101386.73;1657554;86;21304;-63
2022/01/25 12:23:47;;;;;;;18.50;12.10;;;;;;;-0.37;54.67;101388.80;1672722;85;21466;-64
2022/01/25 12:27:21;;;;;;;17.15;10.38;;;;;;;-0.43;54.64;101398.05;1673421;85;21469;-63
2022/01/25 12:30:41;;;;;;;17.82;11.70;;;;;;;-0.51;54.57;101407.00;1672902;84;21229;-64
2022/01/25 12:33:50;;;;;;;18.42;11.88;;;;;;;-0.60;54.55;101395.86;1673189;85;21868;-62
2022/01/25 12:36:59;;;;;;;19.15;12.60;;;;;;;-0.64;54.37;101397.87;1673187;84;21206;-64
2022/01/25 12:40:35;;;;;;;18.60;11.90;;;;;;;-0.71;54.35;101396.90;1673596;84;21237;-63
2022/01/25 12:43:50;;;;;;;18.10;12.37;;;;;;;-0.87;54.10;101389.27;1672645;84;21406;-64
2022/01/25 12:46:56;;;;;;;18.90;12.68;;;;;;;-1.08;54.06;101392.58;1674160;86;21378;-63
2022/01/25 12:50:03;;;;;;;16.42;10.15;;;;;;;-1.14;54.04;101389.33;1677099;82;21338;-64
2022/01/25 12:53:13;;;;;;;15.70;9.68;;;;;;;-1.18;53.94;101397.13;1688626;85;21361;-63
2022/01/25 12:56:34;;;;;;;13.38;8.58;;;;;;;-1.18;53.83;101389.95;1688583;85;21931;-64
2022/01/25 12:59:56;;;;;;;14.10;9.88;;;;;;;-1.29;53.87;101394.11;1689054;83;21287;-64
2022/01/25 13:03:21;;;;;;;17.77;11.15;;;;;;;-1.38;54.26;101389.20;1682960;84;21437;-64
2022/01/25 13:06:35;;;;;;;16.25;11.12;;;;;;;-1.31;54.49;101391.97;1687424;84;21369;-65
2022/01/25 13:09:44;;;;;;;;;;;;;;;-1.22;54.41;101391.03;1691049;83;21402;-62
2022/01/25 13:12:57;;;;;;;16.25;9.20;;;;;;;-1.15;54.53;101383.08;1655209;86;20245;-63
2022/01/25 13:15:59;;;;;;;14.65;9.48;;;;;;;-1.23;54.42;101380.38;1678754;85;21765;-66
2022/01/25 13:19:07;;;;;;;19.95;12.05;;;;;;;-1.20;54.46;101375.72;1678379;84;21224;-63
2022/01/25 13:22:23;;;;;;;25.23;13.55;;;;;;;-1.13;54.45;101377.16;1673267;85;21209;-64
2022/01/25 13:28:56;;;;;;;14.03;9.25;;;;;;;-1.01;54.46;101371.14;1676538;85;21777;-65
2022/01/25 13:32:02;;;;;;;14.43;9.85;;;;;;;-1.03;54.30;101366.81;1676223;85;21855;-65
2022/01/25 13:35:32;;;;;;;16.12;9.55;;;;;;;-1.07;54.35;101358.50;1678046;85;21356;-63
2022/01/25 13:38:42;;;;;;;15.93;10.60;;;;;;;-1.10;54.84;101347.45;1677885;84;21848;-63
2022/01/25 13:41:53;;;;;;;15.93;10.70;;;;;;;-1.09;55.00;101338.89;1675883;85;21856;-65
2022/01/25 13:48:41;;;;;;;17.77;10.40;;;;;;;-1.18;54.97;101338.03;1676324;85;21797;-65
2022/01/25 13:51:54;;;;;;;14.73;9.68;;;;;;;-1.28;55.53;101335.45;1675616;83;21231;-63
2022/01/25 13:55:00;;;;;;;15.30;10.48;;;;;;;-1.26;55.93;101335.75;1675912;85;21657;-63
2022/01/25 13:58:05;;;;;;;15.98;10.55;;;;;;;-1.28;55.97;101336.29;1673325;85;21220;-64
2022/01/25 14:01:13;;;;;;;17.95;10.25;;;;;;;-1.30;56.04;101330.62;1675292;85;21275;-65
2022/01/25 14:04:33;;;;;;;20.05;13.32;;;;;;;-1.35;56.14;101321.92;1675111;85;21946;-64
2022/01/25 14:07:45;;;;;;;19.37;11.70;;;;;;;-1.38;56.21;101313.56;1655477;85;21243;-63
2022/01/25 14:10:53;;;;;;;18.43;11.73;;;;;;;-1.34;56.33;101322.30;1659698;85;21213;-63
2022/01/25 14:24:02;;;;;;;22.98;14.38;;;;;;;-1.88;57.14;101321.44;1659595;85;21275;-64
2022/01/25 14:27:26;;;;;;;21.20;11.53;;;;;;;-1.84;57.47;101318.14;1663192;85;21232;-64
2022/01/25 14:30:31;;;;;;;21.12;12.58;;;;;;;-1.83;57.75;101314.04;1676331;85;21237;-64
2022/01/25 14:33:39;;;;;;;23.90;15.38;;;;;;;-1.78;57.72;101319.17;1677317;84;21242;-64
2022/01/25 14:36:48;;;;;;;38.55;16.37;;;;;;;-1.80;57.60;101319.25;1678339;85;21221;-63
2022/01/25 14:39:53;;;;;;;34.95;15.88;;;;;;;-1.87;57.50;101313.77;1677780;84;21424;-64
2022/01/25 14:42:59;;;;;;;37.83;16.87;;;;;;;-1.89;57.58;101321.02;1666497;85;21284;-64
2022/01/25 14:46:14;;;;;;;41.45;16.40;;;;;;;-1.91;57.61;101321.59;1636421;87;21275;-63
2022/01/25 14:49:27;;;;;;;39.60;16.67;;;;;;;-1.91;57.71;101319.37;1650317;85;21303;-63
2022/01/25 14:52:31;;;;;;;28.85;14.80;;;;;;;-1.86;58.11;101320.90;1651959;84;21738;-64
2022/01/25 14:55:40;;;;;;;23.35;13.90;;;;;;;-1.74;58.04;101319.41;1650766;85;21646;-63
2022/01/25 15:02:14;;;;;;;19.57;12.07;;;;;;;-1.61;57.88;101307.13;1594195;89;21633;-63
2022/01/25 15:05:21;;;;;;;18.65;11.12;;;;;;;-1.60;57.76;101301.67;1594966;88;21244;-63
2022/01/25 15:08:29;;;;;;;22.87;12.75;;;;;;;-1.58;57.52;101309.19;1638223;85;21296;-62
2022/01/25 15:11:35;;;;;;;21.42;12.85;;;;;;;-1.55;57.31;101307.69;1601940;88;21259;-62
2022/01/25 15:14:51;;;;;;;22.02;12.95;;;;;;;-1.52;57.21;101312.52;1651507;85;21522;-62
2022/01/25 15:17:49;;;;;;;23.67;14.10;;;;;;;-1.51;57.19;101307.06;1617609;88;21216;-63
2022/01/25 15:20:56;;;;;;;24.95;14.70;;;;;;;-1.59;57.13;101310.11;1606108;89;21417;-63
2022/01/25 15:24:02;;;;;;;28.17;15.68;;;;;;;-1.64;57.31;101313.52;1651413;85;21228;-65
2022/01/25 15:27:08;;;;;;;30.15;17.98;;;;;;;-1.67;57.62;101312.34;1592759;89;21279;-63
2022/01/25 15:30:15;;;;;;;33.75;19.98;;;;;;;-1.64;57.82;101320.23;1651110;85;21741;-63
2022/01/25 15:33:21;;;;;;;33.33;19.27;;;;;;;-1.64;57.62;101314.87;1601290;88;21792;-64
2022/01/25 15:36:28;;;;;;;37.73;19.90;;;;;;;-1.62;57.97;101317.48;1651037;86;21209;-63
2022/01/25 15:39:35;;;;;;;36.00;19.25;;;;;;;-1.59;58.04;101322.19;1617352;87;21252;-63
2022/01/25 15:42:45;;;;;;;33.65;17.77;;;;;;;-1.56;58.24;101316.70;1594226;89;21263;-63
2022/01/25 15:46:30;;;;;;;29.92;18.98;;;;;;;-1.58;58.11;101316.36;1594076;89;21255;-63
2022/01/25 15:49:13;;;;;;;38.25;21.73;;;;;;;-1.63;58.12;101311.69;1600527;88;21259;-62
2022/01/25 15:52:22;;;;;;;38.90;22.30;;;;;;;-1.68;58.54;101303.88;1651340;86;21817;-63
2022/01/25 15:55:34;;;;;;;41.25;22.48;;;;;;;-1.64;59.13;101304.13;1600608;88;21618;-63
2022/01/25 15:58:38;;;;;;;40.67;24.20;;;;;;;-1.58;58.99;101305.16;1651243;85;21335;-63
2022/01/25 16:01:48;;;;;;;39.78;22.05;;;;;;;-1.56;58.52;101299.25;1601202;89;21290;-63
2022/01/25 16:04:53;;;;;;;42.62;22.58;;;;;;;-1.58;58.45;101293.55;1651349;85;21275;-63
2022/01/25 16:08:03;;;;;;;38.13;22.00;;;;;;;-1.55;58.82;101292.92;1604074;88;21716;-63
2022/01/25 16:11:14;;;;;;;31.80;18.70;;;;;;;-1.52;58.98;101291.88;1650712;86;21409;-65
2022/01/25 16:14:22;;;;;;;35.23;20.85;;;;;;;-1.49;58.83;101293.56;1617626;87;21299;-62
2022/01/25 16:17:28;;;;;;;55.33;29.40;;;;;;;-1.48;58.49;101292.61;1610034;89;21377;-62
2022/01/25 16:20:36;;;;;;;49.73;25.88;;;;;;;-1.47;58.22;101289.00;1670909;85;21244;-63